sensor_id;sensor_type;location;lat;lon;timestamp;P1;durP1;ratioP1;P2;durP2;ratioP2
20101;SDS011;10210;52.284;9.892;2024-01-30T00:01:51;16.63;;;8.00;;
20101;SDS011;10210;52.284;9.892;2024-01-30T00:04:17;15.40;;;7.43;;
20101;SDS011;10210;52.284;9.892;2024-01-30T00:06:46;15.37;;;7.90;;
20101;SDS011;10210;52.284;9.892;2024-01-30T00:09:11;17.33;;;8.70;;
20101;SDS011;10210;52.284;9.892;2024-01-30T00:11:37;16.37;;;8.70;;
20101;SDS011;10210;52.284;9.892;2024-01-30T00:14:03;16.67;;;8.07;;
20101;SDS011;10210;52.284;9.892;2024-01-30T00:16:29;20.90;;;8.60;;
20101;SDS011;10210;52.284;9.892;2024-01-30T00:18:55;17.73;;;8.50;;
20101;SDS011;10210;52.284;9.892;2024-01-30T00:21:21;18.77;;;8.40;;
20101;SDS011;10210;52.284;9.892;2024-01-30T00:23:47;17.80;;;8.10;;
20101;SDS011;10210;52.284;9.892;2024-01-30T00:26:13;16.67;;;8.33;;
20101;SDS011;10210;52.284;9.892;2024-01-30T00:28:40;16.33;;;8.07;;
20101;SDS011;10210;52.284;9.892;2024-01-30T00:31:06;17.30;;;8.50;;
20101;SDS011;10210;52.284;9.892;2024-01-30T00:33:32;15.50;;;7.40;;
20101;SDS011;10210;52.284;9.892;2024-01-30T00:35:58;17.57;;;7.70;;
20101;SDS011;10210;52.284;9.892;2024-01-30T00:38:24;16.63;;;7.77;;
20101;SDS011;10210;52.284;9.892;2024-01-30T00:40:49;16.03;;;8.43;;
20101;SDS011;10210;52.284;9.892;2024-01-30T00:43:15;15.70;;;7.30;;
20101;SDS011;10210;52.284;9.892;2024-01-30T00:45:41;17.70;;;8.30;;
20101;SDS011;10210;52.284;9.892;2024-01-30T00:48:09;16.23;;;7.97;;
20101;SDS011;10210;52.284;9.892;2024-01-30T00:50:34;15.53;;;8.20;;
20101;SDS011;10210;52.284;9.892;2024-01-30T00:53:00;15.20;;;8.00;;
20101;SDS011;10210;52.284;9.892;2024-01-30T00:55:26;16.30;;;7.93;;
20101;SDS011;10210;52.284;9.892;2024-01-30T00:57:53;16.40;;;7.83;;
20101;SDS011;10210;52.284;9.892;2024-01-30T01:00:18;16.20;;;7.70;;
20101;SDS011;10210;52.284;9.892;2024-01-30T01:02:46;16.93;;;7.97;;
20101;SDS011;10210;52.284;9.892;2024-01-30T01:05:11;15.27;;;7.40;;
20101;SDS011;10210;52.284;9.892;2024-01-30T01:07:37;16.53;;;7.70;;
20101;SDS011;10210;52.284;9.892;2024-01-30T01:10:03;16.60;;;7.30;;
20101;SDS011;10210;52.284;9.892;2024-01-30T01:12:29;16.90;;;7.23;;
20101;SDS011;10210;52.284;9.892;2024-01-30T01:14:55;15.10;;;6.83;;
20101;SDS011;10210;52.284;9.892;2024-01-30T01:17:20;16.50;;;7.27;;
20101;SDS011;10210;52.284;9.892;2024-01-30T01:19:46;15.30;;;7.13;;
20101;SDS011;10210;52.284;9.892;2024-01-30T01:22:12;14.70;;;6.73;;
20101;SDS011;10210;52.284;9.892;2024-01-30T01:24:37;14.97;;;7.20;;
20101;SDS011;10210;52.284;9.892;2024-01-30T01:27:03;15.67;;;7.07;;
20101;SDS011;10210;52.284;9.892;2024-01-30T01:29:30;14.37;;;6.40;;
20101;SDS011;10210;52.284;9.892;2024-01-30T01:31:56;14.63;;;7.17;;
20101;SDS011;10210;52.284;9.892;2024-01-30T01:34:22;15.33;;;7.00;;
20101;SDS011;10210;52.284;9.892;2024-01-30T01:36:49;15.60;;;6.97;;
20101;SDS011;10210;52.284;9.892;2024-01-30T01:39:15;15.53;;;7.20;;
20101;SDS011;10210;52.284;9.892;2024-01-30T01:41:41;15.27;;;6.87;;
20101;SDS011;10210;52.284;9.892;2024-01-30T01:44:07;17.07;;;7.43;;
20101;SDS011;10210;52.284;9.892;2024-01-30T01:46:33;17.80;;;7.83;;
20101;SDS011;10210;52.284;9.892;2024-01-30T01:49:00;15.73;;;7.63;;
20101;SDS011;10210;52.284;9.892;2024-01-30T01:51:29;14.57;;;7.30;;
20101;SDS011;10210;52.284;9.892;2024-01-30T01:53:58;14.80;;;6.83;;
20101;SDS011;10210;52.284;9.892;2024-01-30T01:56:28;17.17;;;8.00;;
20101;SDS011;10210;52.284;9.892;2024-01-30T01:58:56;16.93;;;7.93;;
20101;SDS011;10210;52.284;9.892;2024-01-30T02:01:31;15.83;;;7.67;;
20101;SDS011;10210;52.284;9.892;2024-01-30T02:03:58;15.93;;;7.67;;
20101;SDS011;10210;52.284;9.892;2024-01-30T02:06:25;16.63;;;8.13;;
20101;SDS011;10210;52.284;9.892;2024-01-30T02:08:53;17.00;;;8.67;;
20101;SDS011;10210;52.284;9.892;2024-01-30T02:11:19;16.33;;;8.63;;
20101;SDS011;10210;52.284;9.892;2024-01-30T02:13:47;19.73;;;9.30;;
20101;SDS011;10210;52.284;9.892;2024-01-30T02:16:12;18.70;;;10.33;;
20101;SDS011;10210;52.284;9.892;2024-01-30T02:18:38;21.47;;;10.03;;
20101;SDS011;10210;52.284;9.892;2024-01-30T02:21:08;18.80;;;9.90;;
20101;SDS011;10210;52.284;9.892;2024-01-30T02:23:34;18.30;;;8.80;;
20101;SDS011;10210;52.284;9.892;2024-01-30T02:26:00;19.43;;;9.53;;
20101;SDS011;10210;52.284;9.892;2024-01-30T02:28:26;17.97;;;8.30;;
20101;SDS011;10210;52.284;9.892;2024-01-30T02:30:53;16.70;;;8.47;;
20101;SDS011;10210;52.284;9.892;2024-01-30T02:33:18;15.60;;;7.80;;
20101;SDS011;10210;52.284;9.892;2024-01-30T02:35:44;14.67;;;7.23;;
20101;SDS011;10210;52.284;9.892;2024-01-30T02:38:10;16.20;;;7.83;;
20101;SDS011;10210;52.284;9.892;2024-01-30T02:40:35;15.07;;;7.27;;
20101;SDS011;10210;52.284;9.892;2024-01-30T02:43:01;16.83;;;7.80;;
20101;SDS011;10210;52.284;9.892;2024-01-30T02:45:28;16.27;;;8.00;;
20101;SDS011;10210;52.284;9.892;2024-01-30T02:47:54;16.97;;;7.50;;
20101;SDS011;10210;52.284;9.892;2024-01-30T02:50:20;16.73;;;7.53;;
20101;SDS011;10210;52.284;9.892;2024-01-30T02:52:45;15.33;;;6.80;;
20101;SDS011;10210;52.284;9.892;2024-01-30T02:55:11;15.87;;;7.67;;
20101;SDS011;10210;52.284;9.892;2024-01-30T02:57:37;17.40;;;7.77;;
20101;SDS011;10210;52.284;9.892;2024-01-30T03:00:03;16.03;;;7.67;;
20101;SDS011;10210;52.284;9.892;2024-01-30T03:02:31;17.03;;;8.23;;
20101;SDS011;10210;52.284;9.892;2024-01-30T03:04:58;17.83;;;9.40;;
20101;SDS011;10210;52.284;9.892;2024-01-30T03:07:24;18.03;;;8.67;;
20101;SDS011;10210;52.284;9.892;2024-01-30T03:09:50;17.03;;;8.37;;
20101;SDS011;10210;52.284;9.892;2024-01-30T03:12:16;18.33;;;9.50;;
20101;SDS011;10210;52.284;9.892;2024-01-30T03:14:42;19.43;;;9.57;;
20101;SDS011;10210;52.284;9.892;2024-01-30T03:17:07;19.93;;;10.30;;
20101;SDS011;10210;52.284;9.892;2024-01-30T03:19:33;18.87;;;9.70;;
20101;SDS011;10210;52.284;9.892;2024-01-30T03:21:59;19.13;;;10.27;;
20101;SDS011;10210;52.284;9.892;2024-01-30T03:24:25;19.37;;;10.20;;
20101;SDS011;10210;52.284;9.892;2024-01-30T03:26:51;20.57;;;10.53;;
20101;SDS011;10210;52.284;9.892;2024-01-30T03:29:17;20.50;;;10.37;;
20101;SDS011;10210;52.284;9.892;2024-01-30T03:31:42;21.10;;;11.20;;
20101;SDS011;10210;52.284;9.892;2024-01-30T03:34:08;21.13;;;11.20;;
20101;SDS011;10210;52.284;9.892;2024-01-30T03:36:33;20.13;;;11.00;;
20101;SDS011;10210;52.284;9.892;2024-01-30T03:38:59;19.57;;;11.23;;
20101;SDS011;10210;52.284;9.892;2024-01-30T03:41:26;20.67;;;10.50;;
20101;SDS011;10210;52.284;9.892;2024-01-30T03:43:53;19.53;;;10.33;;
20101;SDS011;10210;52.284;9.892;2024-01-30T03:46:18;20.77;;;10.70;;
20101;SDS011;10210;52.284;9.892;2024-01-30T03:48:44;19.87;;;10.50;;
20101;SDS011;10210;52.284;9.892;2024-01-30T03:51:10;20.40;;;9.97;;
20101;SDS011;10210;52.284;9.892;2024-01-30T03:53:43;19.13;;;10.57;;
20101;SDS011;10210;52.284;9.892;2024-01-30T03:56:11;19.97;;;10.37;;
20101;SDS011;10210;52.284;9.892;2024-01-30T03:58:38;19.53;;;10.03;;
20101;SDS011;10210;52.284;9.892;2024-01-30T04:01:04;18.07;;;8.90;;
20101;SDS011;10210;52.284;9.892;2024-01-30T04:03:29;16.93;;;9.20;;
20101;SDS011;10210;52.284;9.892;2024-01-30T04:05:55;17.37;;;9.07;;
20101;SDS011;10210;52.284;9.892;2024-01-30T04:08:21;16.87;;;8.37;;
20101;SDS011;10210;52.284;9.892;2024-01-30T04:10:47;19.23;;;9.40;;
20101;SDS011;10210;52.284;9.892;2024-01-30T04:13:12;18.37;;;9.80;;
20101;SDS011;10210;52.284;9.892;2024-01-30T04:15:38;18.30;;;9.27;;
20101;SDS011;10210;52.284;9.892;2024-01-30T04:18:04;18.47;;;9.43;;
20101;SDS011;10210;52.284;9.892;2024-01-30T04:20:30;17.80;;;9.20;;
20101;SDS011;10210;52.284;9.892;2024-01-30T04:22:56;18.23;;;9.43;;
20101;SDS011;10210;52.284;9.892;2024-01-30T04:25:22;18.80;;;9.50;;
20101;SDS011;10210;52.284;9.892;2024-01-30T04:27:48;19.63;;;9.63;;
20101;SDS011;10210;52.284;9.892;2024-01-30T04:30:14;18.30;;;9.30;;
20101;SDS011;10210;52.284;9.892;2024-01-30T04:32:40;18.40;;;9.27;;
20101;SDS011;10210;52.284;9.892;2024-01-30T04:35:05;17.00;;;8.67;;
20101;SDS011;10210;52.284;9.892;2024-01-30T04:37:32;17.63;;;8.43;;
20101;SDS011;10210;52.284;9.892;2024-01-30T04:39:57;14.27;;;7.20;;
20101;SDS011;10210;52.284;9.892;2024-01-30T04:42:23;17.10;;;7.80;;
20101;SDS011;10210;52.284;9.892;2024-01-30T04:44:49;16.87;;;7.93;;
20101;SDS011;10210;52.284;9.892;2024-01-30T04:47:15;16.30;;;8.23;;
20101;SDS011;10210;52.284;9.892;2024-01-30T04:49:41;17.33;;;7.90;;
20101;SDS011;10210;52.284;9.892;2024-01-30T04:52:08;18.53;;;8.80;;
20101;SDS011;10210;52.284;9.892;2024-01-30T04:54:34;17.43;;;7.70;;
20101;SDS011;10210;52.284;9.892;2024-01-30T04:57:01;15.07;;;7.33;;
20101;SDS011;10210;52.284;9.892;2024-01-30T04:59:28;16.73;;;7.13;;
20101;SDS011;10210;52.284;9.892;2024-01-30T05:01:54;15.50;;;7.17;;
20101;SDS011;10210;52.284;9.892;2024-01-30T05:04:20;16.53;;;7.83;;
20101;SDS011;10210;52.284;9.892;2024-01-30T05:06:47;14.93;;;6.80;;
20101;SDS011;10210;52.284;9.892;2024-01-30T05:09:12;15.73;;;7.37;;
20101;SDS011;10210;52.284;9.892;2024-01-30T05:11:38;15.27;;;6.80;;
20101;SDS011;10210;52.284;9.892;2024-01-30T05:14:06;16.53;;;7.90;;
20101;SDS011;10210;52.284;9.892;2024-01-30T05:16:33;17.33;;;8.20;;
20101;SDS011;10210;52.284;9.892;2024-01-30T05:18:59;17.40;;;8.73;;
20101;SDS011;10210;52.284;9.892;2024-01-30T05:21:25;18.00;;;8.07;;
20101;SDS011;10210;52.284;9.892;2024-01-30T05:23:52;17.43;;;8.30;;
20101;SDS011;10210;52.284;9.892;2024-01-30T05:26:18;16.87;;;8.23;;
20101;SDS011;10210;52.284;9.892;2024-01-30T05:28:44;18.10;;;8.30;;
20101;SDS011;10210;52.284;9.892;2024-01-30T05:31:10;15.83;;;7.67;;
20101;SDS011;10210;52.284;9.892;2024-01-30T05:33:35;17.37;;;8.37;;
20101;SDS011;10210;52.284;9.892;2024-01-30T05:36:01;18.17;;;8.70;;
20101;SDS011;10210;52.284;9.892;2024-01-30T05:38:28;20.77;;;9.47;;
20101;SDS011;10210;52.284;9.892;2024-01-30T05:40:54;19.17;;;8.43;;
20101;SDS011;10210;52.284;9.892;2024-01-30T05:43:20;17.73;;;8.17;;
20101;SDS011;10210;52.284;9.892;2024-01-30T05:45:45;16.83;;;7.73;;
20101;SDS011;10210;52.284;9.892;2024-01-30T05:48:11;15.77;;;7.17;;
20101;SDS011;10210;52.284;9.892;2024-01-30T05:50:37;15.87;;;7.13;;
20101;SDS011;10210;52.284;9.892;2024-01-30T05:53:02;17.30;;;8.27;;
20101;SDS011;10210;52.284;9.892;2024-01-30T05:55:28;15.87;;;7.80;;
20101;SDS011;10210;52.284;9.892;2024-01-30T05:57:54;15.90;;;7.37;;
20101;SDS011;10210;52.284;9.892;2024-01-30T06:00:19;16.93;;;9.47;;
20101;SDS011;10210;52.284;9.892;2024-01-30T06:02:45;18.30;;;9.50;;
20101;SDS011;10210;52.284;9.892;2024-01-30T06:05:11;17.10;;;8.83;;
20101;SDS011;10210;52.284;9.892;2024-01-30T06:07:36;17.93;;;8.97;;
20101;SDS011;10210;52.284;9.892;2024-01-30T06:10:02;17.17;;;8.00;;
20101;SDS011;10210;52.284;9.892;2024-01-30T06:12:28;17.37;;;8.13;;
20101;SDS011;10210;52.284;9.892;2024-01-30T06:14:54;16.97;;;8.50;;
20101;SDS011;10210;52.284;9.892;2024-01-30T06:17:22;17.13;;;7.90;;
20101;SDS011;10210;52.284;9.892;2024-01-30T06:19:48;15.90;;;7.20;;
20101;SDS011;10210;52.284;9.892;2024-01-30T06:22:14;16.07;;;7.17;;
20101;SDS011;10210;52.284;9.892;2024-01-30T06:24:40;15.97;;;7.33;;
20101;SDS011;10210;52.284;9.892;2024-01-30T06:27:06;17.13;;;8.13;;
20101;SDS011;10210;52.284;9.892;2024-01-30T06:29:32;17.93;;;9.10;;
20101;SDS011;10210;52.284;9.892;2024-01-30T06:31:57;17.67;;;9.40;;
20101;SDS011;10210;52.284;9.892;2024-01-30T06:34:23;16.97;;;8.60;;
20101;SDS011;10210;52.284;9.892;2024-01-30T06:36:51;17.97;;;8.73;;
20101;SDS011;10210;52.284;9.892;2024-01-30T06:39:17;19.07;;;8.77;;
20101;SDS011;10210;52.284;9.892;2024-01-30T06:41:43;18.47;;;9.63;;
20101;SDS011;10210;52.284;9.892;2024-01-30T06:44:08;17.63;;;8.87;;
20101;SDS011;10210;52.284;9.892;2024-01-30T06:46:35;17.70;;;8.63;;
20101;SDS011;10210;52.284;9.892;2024-01-30T06:49:00;16.73;;;8.53;;
20101;SDS011;10210;52.284;9.892;2024-01-30T06:51:26;18.53;;;8.97;;
20101;SDS011;10210;52.284;9.892;2024-01-30T06:53:56;18.07;;;9.57;;
20101;SDS011;10210;52.284;9.892;2024-01-30T06:56:22;17.60;;;8.60;;
20101;SDS011;10210;52.284;9.892;2024-01-30T06:58:48;18.13;;;9.10;;
20101;SDS011;10210;52.284;9.892;2024-01-30T07:01:17;18.30;;;9.27;;
20101;SDS011;10210;52.284;9.892;2024-01-30T07:03:43;17.47;;;9.43;;
20101;SDS011;10210;52.284;9.892;2024-01-30T07:06:09;18.37;;;9.47;;
20101;SDS011;10210;52.284;9.892;2024-01-30T07:08:38;17.37;;;8.80;;
20101;SDS011;10210;52.284;9.892;2024-01-30T07:11:04;18.57;;;8.70;;
20101;SDS011;10210;52.284;9.892;2024-01-30T07:13:31;17.80;;;9.17;;
20101;SDS011;10210;52.284;9.892;2024-01-30T07:15:57;18.97;;;9.33;;
20101;SDS011;10210;52.284;9.892;2024-01-30T07:18:23;18.97;;;9.07;;
20101;SDS011;10210;52.284;9.892;2024-01-30T07:20:49;19.87;;;9.67;;
20101;SDS011;10210;52.284;9.892;2024-01-30T07:23:15;18.60;;;9.10;;
20101;SDS011;10210;52.284;9.892;2024-01-30T07:25:45;18.80;;;9.27;;
20101;SDS011;10210;52.284;9.892;2024-01-30T07:28:14;17.53;;;8.83;;
20101;SDS011;10210;52.284;9.892;2024-01-30T07:30:43;18.17;;;8.77;;
20101;SDS011;10210;52.284;9.892;2024-01-30T07:33:08;19.10;;;9.00;;
20101;SDS011;10210;52.284;9.892;2024-01-30T07:35:34;17.37;;;8.03;;
20101;SDS011;10210;52.284;9.892;2024-01-30T07:44:36;18.60;;;9.40;;
20101;SDS011;10210;52.284;9.892;2024-01-30T07:47:01;17.10;;;8.43;;
20101;SDS011;10210;52.284;9.892;2024-01-30T07:49:28;17.50;;;9.27;;
20101;SDS011;10210;52.284;9.892;2024-01-30T07:51:53;17.30;;;8.47;;
20101;SDS011;10210;52.284;9.892;2024-01-30T07:54:19;19.57;;;8.90;;
20101;SDS011;10210;52.284;9.892;2024-01-30T07:56:45;17.73;;;8.87;;
20101;SDS011;10210;52.284;9.892;2024-01-30T07:59:10;17.13;;;8.37;;
20101;SDS011;10210;52.284;9.892;2024-01-30T08:01:37;19.67;;;9.23;;
20101;SDS011;10210;52.284;9.892;2024-01-30T08:04:03;16.23;;;8.87;;
20101;SDS011;10210;52.284;9.892;2024-01-30T08:06:29;20.27;;;8.63;;
20101;SDS011;10210;52.284;9.892;2024-01-30T08:08:54;18.00;;;9.00;;
20101;SDS011;10210;52.284;9.892;2024-01-30T08:11:23;17.77;;;9.15;;
20101;SDS011;10210;52.284;9.892;2024-01-30T08:13:52;16.87;;;8.43;;
20101;SDS011;10210;52.284;9.892;2024-01-30T08:16:18;17.27;;;8.57;;
20101;SDS011;10210;52.284;9.892;2024-01-30T08:18:44;16.63;;;8.40;;
20101;SDS011;10210;52.284;9.892;2024-01-30T08:21:09;15.73;;;8.20;;
20101;SDS011;10210;52.284;9.892;2024-01-30T08:23:35;17.33;;;8.07;;
20101;SDS011;10210;52.284;9.892;2024-01-30T08:26:03;17.33;;;7.60;;
20101;SDS011;10210;52.284;9.892;2024-01-30T08:28:29;16.00;;;7.77;;
20101;SDS011;10210;52.284;9.892;2024-01-30T08:30:54;15.43;;;8.00;;
20101;SDS011;10210;52.284;9.892;2024-01-30T08:33:21;16.67;;;8.10;;
20101;SDS011;10210;52.284;9.892;2024-01-30T08:35:47;19.07;;;9.13;;
20101;SDS011;10210;52.284;9.892;2024-01-30T08:38:13;17.37;;;8.77;;
20101;SDS011;10210;52.284;9.892;2024-01-30T08:40:39;18.53;;;8.73;;
20101;SDS011;10210;52.284;9.892;2024-01-30T08:43:05;17.03;;;8.80;;
20101;SDS011;10210;52.284;9.892;2024-01-30T08:45:30;17.23;;;8.50;;
20101;SDS011;10210;52.284;9.892;2024-01-30T08:47:56;18.17;;;9.87;;
20101;SDS011;10210;52.284;9.892;2024-01-30T08:50:22;19.33;;;9.57;;
20101;SDS011;10210;52.284;9.892;2024-01-30T08:52:48;19.43;;;9.03;;
20101;SDS011;10210;52.284;9.892;2024-01-30T08:55:13;18.93;;;8.97;;
20101;SDS011;10210;52.284;9.892;2024-01-30T08:57:39;19.03;;;10.67;;
20101;SDS011;10210;52.284;9.892;2024-01-30T09:00:05;17.17;;;8.60;;
20101;SDS011;10210;52.284;9.892;2024-01-30T09:02:34;18.87;;;9.30;;
20101;SDS011;10210;52.284;9.892;2024-01-30T09:04:59;19.27;;;7.57;;
20101;SDS011;10210;52.284;9.892;2024-01-30T09:07:25;15.90;;;7.73;;
20101;SDS011;10210;52.284;9.892;2024-01-30T09:09:51;16.83;;;8.00;;
20101;SDS011;10210;52.284;9.892;2024-01-30T09:12:16;17.73;;;7.73;;
20101;SDS011;10210;52.284;9.892;2024-01-30T09:14:42;17.10;;;8.30;;
20101;SDS011;10210;52.284;9.892;2024-01-30T09:17:08;17.30;;;8.00;;
20101;SDS011;10210;52.284;9.892;2024-01-30T09:19:33;17.33;;;8.20;;
20101;SDS011;10210;52.284;9.892;2024-01-30T09:22:02;17.10;;;8.40;;
20101;SDS011;10210;52.284;9.892;2024-01-30T09:24:29;17.87;;;8.67;;
20101;SDS011;10210;52.284;9.892;2024-01-30T09:26:54;17.40;;;8.77;;
20101;SDS011;10210;52.284;9.892;2024-01-30T09:29:21;18.10;;;9.30;;
20101;SDS011;10210;52.284;9.892;2024-01-30T09:31:47;16.43;;;8.80;;
20101;SDS011;10210;52.284;9.892;2024-01-30T09:34:13;19.27;;;9.07;;
20101;SDS011;10210;52.284;9.892;2024-01-30T09:36:39;16.40;;;8.27;;
20101;SDS011;10210;52.284;9.892;2024-01-30T09:39:04;18.83;;;8.43;;
20101;SDS011;10210;52.284;9.892;2024-01-30T09:41:38;15.03;;;7.63;;
20101;SDS011;10210;52.284;9.892;2024-01-30T09:44:15;14.97;;;7.30;;
20101;SDS011;10210;52.284;9.892;2024-01-30T09:46:42;16.03;;;7.63;;
20101;SDS011;10210;52.284;9.892;2024-01-30T09:49:11;15.70;;;7.30;;
20101;SDS011;10210;52.284;9.892;2024-01-30T09:51:38;15.63;;;7.93;;
20101;SDS011;10210;52.284;9.892;2024-01-30T09:54:04;16.13;;;7.63;;
20101;SDS011;10210;52.284;9.892;2024-01-30T09:56:34;15.13;;;6.90;;
20101;SDS011;10210;52.284;9.892;2024-01-30T09:59:00;16.87;;;7.70;;
20101;SDS011;10210;52.284;9.892;2024-01-30T10:01:26;15.73;;;7.07;;
20101;SDS011;10210;52.284;9.892;2024-01-30T10:03:52;16.47;;;7.67;;
20101;SDS011;10210;52.284;9.892;2024-01-30T10:06:19;16.27;;;7.80;;
20101;SDS011;10210;52.284;9.892;2024-01-30T10:08:46;15.33;;;7.37;;
20101;SDS011;10210;52.284;9.892;2024-01-30T10:11:11;16.00;;;7.57;;
20101;SDS011;10210;52.284;9.892;2024-01-30T10:13:38;14.93;;;7.40;;
20101;SDS011;10210;52.284;9.892;2024-01-30T10:16:04;15.40;;;7.40;;
20101;SDS011;10210;52.284;9.892;2024-01-30T10:18:31;18.00;;;8.27;;
20101;SDS011;10210;52.284;9.892;2024-01-30T10:20:58;17.47;;;9.10;;
20101;SDS011;10210;52.284;9.892;2024-01-30T10:23:24;16.07;;;8.47;;
20101;SDS011;10210;52.284;9.892;2024-01-30T10:25:50;17.57;;;8.30;;
20101;SDS011;10210;52.284;9.892;2024-01-30T10:28:17;17.47;;;9.00;;
20101;SDS011;10210;52.284;9.892;2024-01-30T10:30:43;16.07;;;8.80;;
20101;SDS011;10210;52.284;9.892;2024-01-30T10:33:08;17.40;;;8.53;;
20101;SDS011;10210;52.284;9.892;2024-01-30T10:35:34;16.17;;;7.60;;
20101;SDS011;10210;52.284;9.892;2024-01-30T10:38:00;16.43;;;8.40;;
20101;SDS011;10210;52.284;9.892;2024-01-30T10:40:28;16.10;;;7.93;;
20101;SDS011;10210;52.284;9.892;2024-01-30T10:42:55;17.30;;;8.30;;
20101;SDS011;10210;52.284;9.892;2024-01-30T10:45:22;16.83;;;8.10;;
20101;SDS011;10210;52.284;9.892;2024-01-30T10:47:52;15.20;;;7.40;;
20101;SDS011;10210;52.284;9.892;2024-01-30T10:50:23;16.83;;;7.70;;
20101;SDS011;10210;52.284;9.892;2024-01-30T10:52:50;16.47;;;7.57;;
20101;SDS011;10210;52.284;9.892;2024-01-30T10:55:17;15.63;;;7.80;;
20101;SDS011;10210;52.284;9.892;2024-01-30T10:57:44;15.37;;;7.20;;
20101;SDS011;10210;52.284;9.892;2024-01-30T11:00:13;15.03;;;7.40;;
20101;SDS011;10210;52.284;9.892;2024-01-30T11:02:41;15.70;;;7.33;;
20101;SDS011;10210;52.284;9.892;2024-01-30T11:05:09;15.03;;;7.17;;
20101;SDS011;10210;52.284;9.892;2024-01-30T11:07:35;16.23;;;7.63;;
20101;SDS011;10210;52.284;9.892;2024-01-30T11:10:04;16.23;;;8.37;;
20101;SDS011;10210;52.284;9.892;2024-01-30T11:12:37;15.67;;;8.10;;
20101;SDS011;10210;52.284;9.892;2024-01-30T11:17:41;16.83;;;8.87;;
20101;SDS011;10210;52.284;9.892;2024-01-30T11:20:35;16.73;;;7.30;;
20101;SDS011;10210;52.284;9.892;2024-01-30T11:23:10;16.63;;;7.83;;
20101;SDS011;10210;52.284;9.892;2024-01-30T11:25:37;16.17;;;7.47;;
20101;SDS011;10210;52.284;9.892;2024-01-30T11:28:03;16.10;;;8.07;;
20101;SDS011;10210;52.284;9.892;2024-01-30T11:30:29;16.57;;;8.30;;
20101;SDS011;10210;52.284;9.892;2024-01-30T11:33:03;15.53;;;8.17;;
20101;SDS011;10210;52.284;9.892;2024-01-30T11:35:31;18.43;;;7.87;;
20101;SDS011;10210;52.284;9.892;2024-01-30T11:37:59;16.53;;;7.70;;
20101;SDS011;10210;52.284;9.892;2024-01-30T11:40:27;15.43;;;7.87;;
20101;SDS011;10210;52.284;9.892;2024-01-30T11:42:55;15.30;;;7.70;;
20101;SDS011;10210;52.284;9.892;2024-01-30T11:45:24;16.30;;;8.50;;
20101;SDS011;10210;52.284;9.892;2024-01-30T11:47:49;16.00;;;8.23;;
20101;SDS011;10210;52.284;9.892;2024-01-30T11:50:15;16.43;;;8.13;;
20101;SDS011;10210;52.284;9.892;2024-01-30T11:52:41;16.30;;;8.30;;
20101;SDS011;10210;52.284;9.892;2024-01-30T11:55:08;16.03;;;8.80;;
20101;SDS011;10210;52.284;9.892;2024-01-30T11:57:35;16.73;;;8.27;;
20101;SDS011;10210;52.284;9.892;2024-01-30T12:00:02;17.13;;;9.20;;
20101;SDS011;10210;52.284;9.892;2024-01-30T12:02:35;17.13;;;8.33;;
20101;SDS011;10210;52.284;9.892;2024-01-30T12:05:08;17.37;;;8.83;;
20101;SDS011;10210;52.284;9.892;2024-01-30T12:07:34;17.17;;;8.70;;
20101;SDS011;10210;52.284;9.892;2024-01-30T12:10:01;17.57;;;9.17;;
20101;SDS011;10210;52.284;9.892;2024-01-30T12:12:28;16.83;;;9.00;;
20101;SDS011;10210;52.284;9.892;2024-01-30T12:14:55;15.63;;;8.30;;
20101;SDS011;10210;52.284;9.892;2024-01-30T12:17:29;17.53;;;8.63;;
20101;SDS011;10210;52.284;9.892;2024-01-30T12:20:09;17.17;;;8.57;;
20101;SDS011;10210;52.284;9.892;2024-01-30T12:22:38;15.53;;;7.87;;
20101;SDS011;10210;52.284;9.892;2024-01-30T12:25:19;16.97;;;8.00;;
20101;SDS011;10210;52.284;9.892;2024-01-30T12:27:47;16.43;;;8.60;;
20101;SDS011;10210;52.284;9.892;2024-01-30T12:30:15;16.43;;;8.00;;
20101;SDS011;10210;52.284;9.892;2024-01-30T12:32:42;14.67;;;7.77;;
20101;SDS011;10210;52.284;9.892;2024-01-30T12:35:10;15.53;;;7.60;;
20101;SDS011;10210;52.284;9.892;2024-01-30T12:37:42;16.20;;;7.60;;
20101;SDS011;10210;52.284;9.892;2024-01-30T12:40:10;17.83;;;8.70;;
20101;SDS011;10210;52.284;9.892;2024-01-30T12:42:39;17.90;;;8.43;;
20101;SDS011;10210;52.284;9.892;2024-01-30T12:45:07;16.10;;;8.30;;
20101;SDS011;10210;52.284;9.892;2024-01-30T12:47:33;17.37;;;8.40;;
20101;SDS011;10210;52.284;9.892;2024-01-30T12:49:58;17.23;;;8.53;;
20101;SDS011;10210;52.284;9.892;2024-01-30T12:52:24;16.47;;;8.79;;
20101;SDS011;10210;52.284;9.892;2024-01-30T12:54:51;17.77;;;8.23;;
20101;SDS011;10210;52.284;9.892;2024-01-30T12:57:17;17.20;;;8.80;;
20101;SDS011;10210;52.284;9.892;2024-01-30T12:59:44;19.10;;;8.97;;
20101;SDS011;10210;52.284;9.892;2024-01-30T13:02:12;16.70;;;8.52;;
20101;SDS011;10210;52.284;9.892;2024-01-30T13:04:38;16.40;;;8.40;;
20101;SDS011;10210;52.284;9.892;2024-01-30T13:07:05;16.90;;;8.83;;
20101;SDS011;10210;52.284;9.892;2024-01-30T13:09:31;18.03;;;9.17;;
20101;SDS011;10210;52.284;9.892;2024-01-30T13:11:57;16.90;;;8.57;;
20101;SDS011;10210;52.284;9.892;2024-01-30T13:14:23;15.97;;;7.83;;
20101;SDS011;10210;52.284;9.892;2024-01-30T13:16:49;19.13;;;10.13;;
20101;SDS011;10210;52.284;9.892;2024-01-30T13:19:15;19.83;;;9.07;;
20101;SDS011;10210;52.284;9.892;2024-01-30T13:21:42;17.03;;;8.40;;
20101;SDS011;10210;52.284;9.892;2024-01-30T13:24:08;16.70;;;8.40;;
20101;SDS011;10210;52.284;9.892;2024-01-30T13:26:40;17.53;;;9.10;;
20101;SDS011;10210;52.284;9.892;2024-01-30T13:29:09;15.70;;;8.43;;
20101;SDS011;10210;52.284;9.892;2024-01-30T13:31:38;18.03;;;9.13;;
20101;SDS011;10210;52.284;9.892;2024-01-30T13:34:04;17.53;;;8.97;;
20101;SDS011;10210;52.284;9.892;2024-01-30T13:36:31;16.57;;;8.80;;
20101;SDS011;10210;52.284;9.892;2024-01-30T13:39:00;18.70;;;9.73;;
20101;SDS011;10210;52.284;9.892;2024-01-30T13:41:27;17.23;;;8.40;;
20101;SDS011;10210;52.284;9.892;2024-01-30T13:43:53;18.23;;;9.50;;
20101;SDS011;10210;52.284;9.892;2024-01-30T13:46:19;16.33;;;8.43;;
20101;SDS011;10210;52.284;9.892;2024-01-30T13:48:45;17.20;;;9.33;;
20101;SDS011;10210;52.284;9.892;2024-01-30T13:51:10;17.83;;;8.97;;
20101;SDS011;10210;52.284;9.892;2024-01-30T13:53:38;16.67;;;8.83;;
20101;SDS011;10210;52.284;9.892;2024-01-30T13:56:03;17.63;;;8.87;;
20101;SDS011;10210;52.284;9.892;2024-01-30T13:58:29;16.63;;;8.40;;
20101;SDS011;10210;52.284;9.892;2024-01-30T14:00:59;16.60;;;8.17;;
20101;SDS011;10210;52.284;9.892;2024-01-30T14:03:24;16.90;;;8.40;;
20101;SDS011;10210;52.284;9.892;2024-01-30T14:05:50;16.73;;;7.40;;
20101;SDS011;10210;52.284;9.892;2024-01-30T14:08:16;16.57;;;7.97;;
20101;SDS011;10210;52.284;9.892;2024-01-30T14:10:41;16.20;;;8.00;;
20101;SDS011;10210;52.284;9.892;2024-01-30T14:13:07;17.20;;;9.18;;
20101;SDS011;10210;52.284;9.892;2024-01-30T14:15:33;17.33;;;8.97;;
20101;SDS011;10210;52.284;9.892;2024-01-30T14:17:58;18.33;;;8.50;;
20101;SDS011;10210;52.284;9.892;2024-01-30T14:20:24;16.17;;;8.73;;
20101;SDS011;10210;52.284;9.892;2024-01-30T14:22:50;17.37;;;9.17;;
20101;SDS011;10210;52.284;9.892;2024-01-30T14:25:16;16.97;;;8.70;;
20101;SDS011;10210;52.284;9.892;2024-01-30T14:27:42;15.93;;;8.47;;
20101;SDS011;10210;52.284;9.892;2024-01-30T14:30:09;19.20;;;9.53;;
20101;SDS011;10210;52.284;9.892;2024-01-30T14:32:36;16.40;;;8.63;;
20101;SDS011;10210;52.284;9.892;2024-01-30T14:35:03;19.07;;;9.57;;
20101;SDS011;10210;52.284;9.892;2024-01-30T14:37:30;17.07;;;9.10;;
20101;SDS011;10210;52.284;9.892;2024-01-30T14:39:56;18.27;;;9.40;;